WetterOnline ( https://www.wetteronline.de )

Wetter aktuell Ulm

Aktuelles Wetter: Ulm-Mähringen (592m)

6-stündlich | Neueste Meldungen
Ortszeit Temperatur Wetter
Mi, 01.02. 19:00 3.2° C bedeckt
Mi, 01.02. 13:00 3.4° C bedeckt
Mi, 01.02. 7:00 1.8° C bedeckt
Mi, 01.02. 1:00 1.4° C leichter Schneefall
Di, 31.01. 19:00 2.4° C bedeckt
Di, 31.01. 13:00 2.2° C wolkig
Di, 31.01. 7:00 -1.9° C wolkenlos
Di, 31.01. 1:00 0.9° C leicht bewölkt
Ortszeit Temperatur Wetter
Mi, 01.02. 23:00 3.2° C leichter Regen
Mi, 01.02. 22:50 3.2° C leichter Regen
Mi, 01.02. 22:40 3.0° C Sprühregen
Mi, 01.02. 22:30 3.0° C Sprühregen
Mi, 01.02. 22:20 3.0° C Sprühregen
Mi, 01.02. 22:10 3.2° C leichter Regen
Mi, 01.02. 22:00 3.2° C bewölkt
Mi, 01.02. 21:30 3.1° C bedeckt
Mi, 01.02. 21:00 3.2° C bedeckt
Mi, 01.02. 20:30 3.1° C bedeckt
Mi, 01.02. 20:00 3.1° C bedeckt
Ortszeit Relative Feuchte Sichtweite
Mi, 01.02. 19:00 71% 50 km
Mi, 01.02. 13:00 67% 60 km
Mi, 01.02. 7:00 86% 60 km
Mi, 01.02. 1:00 86% 30 km
Di, 31.01. 19:00 68% >70 km
Di, 31.01. 13:00 68% 40 km
Di, 31.01. 7:00 89% 26 km
Di, 31.01. 1:00 80% 50 km
Ortszeit Relative Feuchte Sichtweite
Mi, 01.02. 23:00 73% 40 km
Mi, 01.02. 22:50 73% -
Mi, 01.02. 22:40 74% -
Mi, 01.02. 22:30 73% 35 km
Mi, 01.02. 22:20 73% -
Mi, 01.02. 22:10 72% -
Mi, 01.02. 22:00 71% 50 km
Mi, 01.02. 21:30 71% 65 km
Mi, 01.02. 21:00 71% 45 km
Mi, 01.02. 20:30 72% 50 km
Mi, 01.02. 20:00 72% 45 km
Ortszeit Niederschlagsmenge Niederschlagsart
Mi, 01.02. 19:00 0.1 l/m2 in 12 Std. Schnee, Regen
Mi, 01.02. 13:00 0.1 l/m2 in 6 Std. Regen
Mi, 01.02. 7:00 0.1 l/m2 in 12 Std. Schnee, Regen
Mi, 01.02. 1:00 0.1 l/m2 in 6 Std. Schnee, Sprühregen
Di, 31.01. 19:00 0.0 l/m2 in 12 Std. -
Di, 31.01. 13:00 0.0 l/m2 in 6 Std. -
Di, 31.01. 7:00 0.0 l/m2 in 12 Std. -
Di, 31.01. 1:00 0.0 l/m2 in 6 Std. -
Ortszeit Niederschlagsmenge Niederschlagsart
Mi, 01.02. 23:00 <0.05 l/m2 in 1 Std. Regen
Mi, 01.02. 22:50 keine Meldung -
Mi, 01.02. 22:40 keine Meldung -
Mi, 01.02. 22:30 <0.05 l/m2 in 30 Min -
Mi, 01.02. 22:20 keine Meldung -
Mi, 01.02. 22:10 keine Meldung -
Mi, 01.02. 22:00 0.0 l/m2 in 1 Std. -
Mi, 01.02. 21:30 0.0 l/m2 in 30 Min -
Mi, 01.02. 21:00 0.0 l/m2 in 1 Std. -
Mi, 01.02. 20:30 0.0 l/m2 in 30 Min -
Mi, 01.02. 20:00 0.0 l/m2 in 1 Std. -
Ortszeit Stärke Spitze Richtung
km/h Bft. km/h Grad Sektor
Mi, 01.02. 19:00 22 4 47 250° W
Mi, 01.02. 13:00 25 4 50 260° W
Mi, 01.02. 7:00 14 3 36 220° SW
Mi, 01.02. 1:00 13 3 35 240° SW
Di, 31.01. 19:00 14 3 43 240° SW
Di, 31.01. 13:00 14 3 32 240° SW
Di, 31.01. 7:00 13 3 28 210° SW
Di, 31.01. 1:00 14 3 32 250° W
Ortszeit Stärke Spitze Richtung
km/h Bft. km/h Grad Sektor
Mi, 01.02. 23:00 25 4 47 260° W
Mi, 01.02. 22:50 25 4 - 260° W
Mi, 01.02. 22:40 25 4 - 260° W
Mi, 01.02. 22:30 24 4 48 260° W
Mi, 01.02. 22:20 24 4 - 260° W
Mi, 01.02. 22:10 25 4 - 260° W
Mi, 01.02. 22:00 22 4 44 260° W
Mi, 01.02. 21:30 24 4 39 260° W
Mi, 01.02. 21:00 24 4 44 250° W
Mi, 01.02. 20:30 25 4 43 250° W
Mi, 01.02. 20:00 20 4 39 250° W
Ortszeit Untergrenze Bedeckung Gattung
total tief tief mittel hoch
Mi, 01.02. 19:00 840 m 8/8 8/8 - - -
Mi, 01.02. 13:00 960 m 8/8 8/8 - - -
Mi, 01.02. 7:00 750 m 8/8 8/8 - - -
Mi, 01.02. 1:00 510 m 7/8 7/8 - - -
Di, 31.01. 19:00 990 m 8/8 8/8 - - -
Di, 31.01. 13:00 2400 m 7/8 2/8 - - -
Di, 31.01. 7:00 - 0/8 0/8 - - -
Di, 31.01. 1:00 1500 m 4/8 4/8 - - -
Ortszeit Bedeckungsgrad in Achtel und Wolkenuntergrenze
Mi, 01.02. 23:00 8(930m)
Mi, 01.02. 22:50 8(930m)
Mi, 01.02. 22:40 7
Mi, 01.02. 22:30 6(960m) 8(1470m)
Mi, 01.02. 22:20 6(960m) 8(1470m)
Mi, 01.02. 22:10 8
Mi, 01.02. 22:00 1(1170m) 7(1380m) 7(1500m)
Mi, 01.02. 21:30 8(1170m)
Mi, 01.02. 21:00 3(780m) 8(1320m)
Mi, 01.02. 20:30 5(750m) 7(1350m) 8(1500m)
Mi, 01.02. 20:00 4(780m) 7(1320m) 8(1500m)
Ortszeit Luftdruck NN (hPa) Tendenz (hPa in 3 Std.)
Mi, 01.02. 19:00 1025 + 1,0
Mi, 01.02. 13:00 1025 + 0,4
Mi, 01.02. 7:00 1024 - 0,2
Mi, 01.02. 1:00 1026 - 0,5
Di, 31.01. 19:00 1027 + 0,7
Di, 31.01. 13:00 1028 - 1,0
Di, 31.01. 7:00 1030 + 1,1
Di, 31.01. 1:00 1028 + 0,9
Ortszeit Luftdruck NN (hPa) Tendenz (hPa in 3 Std.)
Mi, 01.02. 23:00 1025 - 0,1
Mi, 01.02. 22:50 1025 keine Meldung
Mi, 01.02. 22:40 1025 keine Meldung
Mi, 01.02. 22:30 1025 - 0,1
Mi, 01.02. 22:20 1025 keine Meldung
Mi, 01.02. 22:10 1025 keine Meldung
Mi, 01.02. 22:00 1025 - 0,1
Mi, 01.02. 21:30 1025 + 0,2
Mi, 01.02. 21:00 1025 + 0,3
Mi, 01.02. 20:30 1025 + 0,5
Mi, 01.02. 20:00 1025 + 0,7
Ortszeit Schneehöhe (cm)
Mi, 01.02. 19:00 0
Mi, 01.02. 13:00 0
Mi, 01.02. 7:00 0
Mi, 01.02. 1:00 0
Di, 31.01. 19:00 -
Di, 31.01. 13:00 -
Di, 31.01. 7:00 1
Di, 31.01. 1:00 -
Ortszeit Schneehöhe (cm)
Mi, 01.02. 23:00 0
Mi, 01.02. 22:50 0
Mi, 01.02. 22:40 0
Mi, 01.02. 22:30 0
Mi, 01.02. 22:20 0
Mi, 01.02. 22:10 0
Mi, 01.02. 22:00 0
Mi, 01.02. 21:30 0
Mi, 01.02. 21:00 0
Mi, 01.02. 20:30 0
Mi, 01.02. 20:00 0
Link zu dieser Seite / Seite empfehlen

Das Wetter in ...